Wrightstown, Wisconsin
Current Conditions -  °F | °C
As of 5:53 PM on Monday 20 Oct 2014 (Local Time) from KGRB Reporting Station
Overcast Overcast  
Wind Chill: 10°   Ceiling: 5000
Heat Index: 10°   Visibility: 10mi
Dew Point:   Wind: 3mph
Humidity: 80%   Direction: 320°NW
Pressure: 29.95"   Gusts: NA
Location:  44.33°N, 88.16°W
Report Text: KGRB 202253Z 32003KT 10SM OVC050 10/07 A2995 RMK AO2 SLP148 T01000067
Loading
Personal Weather Stations






























Interactive Weather Map
Tropical Storm Tracking
New forecast layout! Learn more

10-Day Weather Forecast

Advertisements
Track Severe Weather on mobile